createdAt,value
2019-05-07T00:00:25.533Z,4.13
2019-05-07T00:02:55.481Z,3.63
2019-05-07T00:05:25.659Z,4.13
2019-05-07T00:07:54.970Z,3.87
2019-05-07T00:10:25.059Z,3.90
2019-05-07T00:12:55.172Z,4.00
2019-05-07T00:15:25.117Z,4.23
2019-05-07T00:17:55.076Z,3.70
2019-05-07T00:20:25.045Z,4.00
2019-05-07T00:22:54.952Z,3.87
2019-05-07T00:25:24.827Z,4.07
2019-05-07T00:27:54.765Z,3.70
2019-05-07T00:30:24.696Z,3.23
2019-05-07T00:32:54.008Z,3.80
2019-05-07T00:35:26.624Z,3.80
2019-05-07T00:38:02.528Z,3.97
2019-05-07T00:40:43.867Z,3.80
2019-05-07T00:43:17.194Z,4.03
2019-05-07T00:45:52.894Z,4.00
2019-05-07T00:48:23.507Z,4.17
2019-05-07T00:50:57.185Z,4.27
2019-05-07T00:53:27.021Z,3.70
2019-05-07T00:55:56.290Z,3.80
2019-05-07T00:58:27.017Z,4.50
2019-05-07T01:00:56.490Z,3.47
2019-05-07T01:03:26.298Z,3.80
2019-05-07T01:05:56.297Z,4.00
2019-05-07T01:08:26.182Z,4.70
2019-05-07T01:10:55.539Z,3.80
2019-05-07T01:13:25.734Z,3.60
2019-05-07T01:15:55.667Z,3.40
2019-05-07T01:18:25.634Z,3.43
2019-05-07T01:20:55.074Z,3.40
2019-05-07T01:23:24.830Z,3.60
2019-05-07T01:25:54.266Z,3.60
2019-05-07T01:28:24.121Z,3.73
2019-05-07T01:30:53.475Z,3.63
2019-05-07T01:33:29.958Z,3.50
2019-05-07T01:36:05.656Z,3.50
2019-05-07T01:38:35.690Z,3.40
2019-05-07T01:41:05.781Z,3.47
2019-05-07T01:43:35.703Z,3.50
2019-05-07T01:46:05.653Z,3.57
2019-05-07T01:48:35.569Z,3.77
2019-05-07T01:51:05.547Z,3.47
2019-05-07T01:53:35.472Z,3.30
2019-05-07T01:56:05.566Z,3.50
2019-05-07T01:58:35.517Z,3.47
2019-05-07T02:01:05.507Z,3.23
2019-05-07T02:03:59.795Z,2.93
2019-05-07T02:06:54.938Z,3.40
2019-05-07T02:09:34.021Z,3.47
2019-05-07T02:12:22.219Z,3.70
2019-05-07T02:14:53.063Z,3.93
2019-05-07T02:17:23.141Z,3.57
2019-05-07T02:19:53.054Z,3.50
2019-05-07T02:22:23.291Z,4.03
2019-05-07T02:24:53.411Z,3.80
2019-05-07T02:27:23.223Z,4.13
2019-05-07T02:29:53.091Z,3.23
2019-05-07T02:32:24.031Z,3.60
2019-05-07T02:34:54.611Z,3.43
2019-05-07T02:37:40.775Z,3.40
2019-05-07T02:40:09.567Z,3.57
2019-05-07T02:42:38.934Z,3.53
2019-05-07T02:45:36.807Z,3.47
2019-05-07T02:48:06.125Z,4.10
2019-05-07T02:50:43.724Z,3.53
2019-05-07T02:53:22.568Z,4.13
2019-05-07T02:55:53.724Z,3.53
2019-05-07T02:58:24.175Z,3.83
2019-05-07T03:00:54.504Z,3.40
2019-05-07T03:03:24.761Z,3.43
2019-05-07T03:05:54.905Z,3.67
2019-05-07T03:08:27.358Z,3.73
2019-05-07T03:10:55.820Z,3.40
2019-05-07T03:13:25.818Z,3.70
2019-05-07T03:15:55.892Z,3.60
2019-05-07T03:18:25.930Z,3.63
2019-05-07T03:21:03.965Z,3.20
2019-05-07T03:23:58.996Z,3.10
2019-05-07T03:26:34.108Z,3.50
2019-05-07T03:29:05.562Z,3.80
2019-05-07T03:32:09.711Z,3.40
2019-05-07T03:35:06.389Z,3.27
2019-05-07T03:37:36.191Z,3.47
2019-05-07T03:40:04.263Z,4.00
2019-05-07T03:42:33.939Z,4.10
2019-05-07T03:45:28.461Z,3.23
2019-05-07T03:48:13.760Z,4.17
2019-05-07T03:50:43.868Z,3.83
2019-05-07T03:53:14.534Z,3.90
2019-05-07T03:55:45.069Z,3.63
2019-05-07T03:58:15.093Z,4.03
2019-05-07T04:00:45.418Z,3.20
2019-05-07T04:03:19.451Z,3.30
2019-05-07T04:05:46.980Z,3.93
2019-05-07T04:08:16.898Z,3.33
2019-05-07T04:10:46.784Z,3.60
2019-05-07T04:13:16.724Z,3.60
2019-05-07T04:15:46.636Z,3.17
2019-05-07T04:18:16.603Z,3.50
2019-05-07T04:20:46.518Z,3.30
2019-05-07T04:23:16.483Z,3.53
2019-05-07T04:25:56.812Z,3.47
2019-05-07T04:28:36.366Z,3.30
2019-05-07T04:31:05.671Z,3.47
2019-05-07T04:33:39.221Z,3.40
2019-05-07T04:36:23.198Z,3.33
2019-05-07T04:38:53.228Z,3.37
2019-05-07T04:41:23.717Z,3.63
2019-05-07T04:43:54.130Z,2.90
2019-05-07T04:46:23.852Z,3.50
2019-05-07T04:48:53.217Z,3.37
2019-05-07T04:51:33.635Z,3.70
2019-05-07T04:54:03.985Z,3.17
2019-05-07T04:56:34.014Z,3.43
2019-05-07T04:59:05.802Z,3.40
2019-05-07T05:01:39.456Z,3.00
2019-05-07T05:04:21.994Z,3.60
2019-05-07T05:06:42.424Z,3.37
2019-05-07T05:09:12.566Z,3.37
2019-05-07T05:11:43.885Z,3.40
2019-05-07T05:14:13.795Z,3.80
2019-05-07T05:16:43.844Z,3.13
2019-05-07T05:19:14.054Z,3.90
2019-05-07T05:22:09.434Z,3.17
2019-05-07T05:24:43.751Z,3.10
2019-05-07T05:27:13.711Z,3.27
2019-05-07T05:29:43.862Z,3.20
2019-05-07T05:32:13.819Z,3.17
2019-05-07T05:34:43.165Z,3.27
2019-05-07T05:37:12.994Z,3.50
2019-05-07T05:39:42.947Z,2.80
2019-05-07T05:42:23.590Z,3.33
2019-05-07T05:44:53.525Z,3.27
2019-05-07T05:47:23.369Z,2.80
2019-05-07T05:49:53.478Z,3.33
2019-05-07T05:52:32.900Z,3.43
2019-05-07T05:55:05.896Z,3.00
2019-05-07T05:57:52.162Z,3.17
2019-05-07T06:00:42.266Z,3.30
2019-05-07T06:03:37.162Z,3.20
2019-05-07T06:06:17.595Z,3.60
2019-05-07T06:08:58.969Z,3.10
2019-05-07T06:11:45.514Z,2.73
2019-05-07T06:14:43.505Z,2.80
2019-05-07T06:17:42.559Z,2.93
2019-05-07T06:20:42.879Z,3.03
2019-05-07T06:23:28.600Z,3.63
2019-05-07T06:25:58.049Z,3.60
2019-05-07T06:28:28.024Z,4.03
2019-05-07T06:30:57.930Z,4.30
2019-05-07T06:33:28.010Z,3.97
2019-05-07T06:35:57.633Z,4.00
2019-05-07T06:38:29.233Z,4.97
2019-05-07T06:41:12.165Z,4.07
2019-05-07T06:43:52.117Z,5.03
2019-05-07T06:46:23.224Z,4.07
2019-05-07T06:48:53.180Z,4.10
2019-05-07T06:51:23.150Z,4.63
2019-05-07T06:53:53.078Z,5.03
2019-05-07T06:56:23.173Z,4.77
2019-05-07T06:59:05.193Z,4.20
2019-05-07T07:01:56.348Z,4.87
2019-05-07T07:04:38.542Z,5.00
2019-05-07T07:07:29.655Z,4.30
2019-05-07T07:10:03.395Z,4.47
2019-05-07T07:12:33.607Z,4.63
2019-05-07T07:15:03.985Z,4.70
2019-05-07T07:17:34.263Z,4.83
2019-05-07T07:20:04.429Z,5.80
2019-05-07T07:22:34.484Z,4.83
2019-05-07T07:25:06.691Z,5.87
2019-05-07T07:27:36.550Z,5.37
2019-05-07T07:30:22.842Z,4.77
2019-05-07T07:32:53.564Z,5.27
2019-05-07T07:35:23.563Z,4.73
2019-05-07T07:37:53.531Z,4.67
2019-05-07T07:40:42.610Z,5.63
2019-05-07T07:43:13.019Z,5.30
2019-05-07T07:45:43.059Z,5.33
2019-05-07T07:48:13.291Z,5.50
2019-05-07T07:50:43.237Z,6.00
2019-05-07T07:53:13.384Z,5.80
2019-05-07T07:56:02.552Z,5.47
2019-05-07T07:58:39.285Z,5.77
2019-05-07T08:01:24.674Z,5.33
2019-05-07T08:03:54.641Z,6.50
2019-05-07T08:06:26.212Z,4.87
2019-05-07T08:08:56.165Z,4.60
2019-05-07T08:11:26.142Z,4.67
2019-05-07T08:13:56.203Z,4.93
2019-05-07T08:16:26.185Z,5.47
2019-05-07T08:18:56.095Z,4.83
2019-05-07T08:21:26.422Z,4.30
2019-05-07T08:23:55.929Z,5.30
2019-05-07T08:26:27.282Z,4.77
2019-05-07T08:28:57.238Z,4.97
2019-05-07T08:31:35.165Z,4.93
2019-05-07T08:34:19.172Z,4.23
2019-05-07T08:36:49.121Z,5.37
2019-05-07T08:39:19.017Z,6.07
2019-05-07T08:41:48.943Z,5.63
2019-05-07T08:44:22.296Z,4.93
2019-05-07T08:47:13.682Z,5.07
2019-05-07T08:49:44.014Z,6.17
2019-05-07T08:52:13.346Z,5.27
2019-05-07T08:54:42.918Z,5.00
2019-05-07T08:57:12.350Z,4.80
2019-05-07T08:59:43.919Z,4.73
2019-05-07T09:02:13.844Z,4.97
2019-05-07T09:04:43.385Z,5.07
2019-05-07T09:07:13.463Z,5.40
2019-05-07T09:09:43.571Z,5.17
2019-05-07T09:12:13.710Z,5.60
2019-05-07T09:14:43.054Z,5.00
2019-05-07T09:17:13.008Z,5.33
2019-05-07T09:19:50.963Z,5.73
2019-05-07T09:22:14.634Z,5.17
2019-05-07T09:24:44.800Z,5.00
2019-05-07T09:27:32.644Z,6.12
2019-05-07T09:30:13.533Z,5.77
2019-05-07T09:32:51.986Z,5.53
2019-05-07T09:35:28.024Z,5.90
2019-05-07T09:37:58.005Z,5.77
2019-05-07T09:40:28.012Z,5.57
2019-05-07T09:42:58.777Z,5.47
2019-05-07T09:45:28.889Z,5.27
2019-05-07T09:47:59.949Z,5.17
2019-05-07T09:50:32.310Z,6.00
2019-05-07T09:53:02.448Z,5.70
2019-05-07T09:55:32.542Z,4.93
2019-05-07T09:58:02.718Z,5.47
2019-05-07T10:00:32.897Z,5.43
2019-05-07T10:03:02.926Z,4.93
2019-05-07T10:05:32.861Z,4.67
2019-05-07T10:08:03.080Z,4.87
2019-05-07T10:10:33.063Z,4.17
2019-05-07T10:13:22.546Z,5.40
2019-05-07T10:15:52.606Z,4.87
2019-05-07T10:18:22.931Z,5.80
2019-05-07T10:20:52.379Z,4.67
2019-05-07T10:23:23.252Z,5.53
2019-05-07T10:25:54.609Z,4.63
2019-05-07T10:28:24.959Z,4.23
2019-05-07T10:30:55.473Z,5.03
2019-05-07T10:33:25.557Z,4.73
2019-05-07T10:35:54.879Z,4.77
2019-05-07T10:38:24.738Z,4.70
2019-05-07T10:40:54.697Z,4.80
2019-05-07T10:43:24.742Z,4.90
2019-05-07T10:46:12.841Z,4.30
2019-05-07T10:49:01.960Z,4.73
2019-05-07T10:51:32.154Z,5.60
2019-05-07T10:54:02.396Z,5.60
2019-05-07T10:56:32.611Z,4.50
2019-05-07T10:59:03.039Z,5.23
2019-05-07T11:01:52.885Z,5.67
2019-05-07T11:04:22.746Z,5.27
2019-05-07T11:06:52.730Z,5.40
2019-05-07T11:09:22.678Z,5.60
2019-05-07T11:11:52.612Z,5.00
2019-05-07T11:14:21.940Z,6.03
2019-05-07T11:17:02.594Z,5.00
2019-05-07T11:19:32.604Z,5.10
2019-05-07T11:22:02.579Z,5.27
2019-05-07T11:24:32.538Z,5.20
2019-05-07T11:27:02.431Z,5.03
2019-05-07T11:29:33.825Z,5.83
2019-05-07T11:32:03.928Z,5.60
2019-05-07T11:34:36.674Z,5.40
2019-05-07T11:37:06.637Z,5.70
2019-05-07T11:39:36.567Z,5.00
2019-05-07T11:42:42.692Z,5.57
2019-05-07T11:45:17.765Z,4.70
2019-05-07T11:47:47.132Z,6.10
2019-05-07T11:51:01.531Z,5.90
2019-05-07T11:53:23.289Z,5.63
2019-05-07T11:55:53.255Z,5.57
2019-05-07T11:58:23.283Z,5.27
2019-05-07T12:00:58.455Z,5.10
2019-05-07T12:03:28.406Z,4.97
2019-05-07T12:05:58.362Z,5.27
2019-05-07T12:08:39.385Z,5.80
2019-05-07T12:11:02.430Z,5.23
2019-05-07T12:13:32.313Z,4.27
2019-05-07T12:16:03.123Z,4.13
2019-05-07T12:18:33.326Z,5.40
2019-05-07T12:21:16.765Z,5.40
2019-05-07T12:23:36.335Z,4.93
2019-05-07T12:26:06.616Z,4.87
2019-05-07T12:28:36.698Z,5.57
2019-05-07T12:31:45.738Z,4.80
2019-05-07T12:34:23.035Z,5.77
2019-05-07T12:36:52.468Z,5.03
2019-05-07T12:39:22.027Z,4.67
2019-05-07T12:41:52.530Z,5.37
2019-05-07T12:44:22.253Z,4.63
2019-05-07T12:46:52.552Z,4.53
2019-05-07T12:49:22.493Z,4.80
2019-05-07T12:51:57.266Z,5.00
2019-05-07T12:54:44.947Z,5.37
2019-05-07T12:57:14.897Z,4.70
2019-05-07T12:59:44.745Z,5.40
2019-05-07T13:02:37.165Z,5.63
2019-05-07T13:04:58.825Z,5.93
2019-05-07T13:08:02.777Z,5.73
2019-05-07T13:10:32.735Z,5.87
2019-05-07T13:13:02.732Z,5.50
2019-05-07T13:15:32.749Z,5.43
2019-05-07T13:18:02.892Z,5.50
2019-05-07T13:20:32.943Z,5.10
2019-05-07T13:23:03.744Z,5.67
2019-05-07T13:25:34.169Z,5.00
2019-05-07T13:28:05.129Z,6.10
2019-05-07T13:30:35.075Z,5.47
2019-05-07T13:33:05.898Z,5.10
2019-05-07T13:35:36.679Z,5.33
2019-05-07T13:38:24.761Z,5.20
2019-05-07T13:41:02.365Z,6.07
2019-05-07T13:43:37.393Z,5.37
2019-05-07T13:46:11.888Z,5.47
2019-05-07T13:48:45.197Z,5.77
2019-05-07T13:51:13.878Z,5.23
2019-05-07T13:53:43.852Z,5.53
2019-05-07T13:56:13.797Z,5.40
2019-05-07T13:58:43.798Z,5.53
2019-05-07T14:01:32.646Z,6.07
2019-05-07T14:04:04.087Z,5.73
2019-05-07T14:06:42.587Z,6.07
2019-05-07T14:09:17.210Z,5.50
2019-05-07T14:11:47.370Z,5.40
2019-05-07T14:14:17.413Z,5.37
2019-05-07T14:16:47.673Z,4.80
2019-05-07T14:19:17.945Z,6.03
2019-05-07T14:21:47.811Z,5.73
2019-05-07T14:24:17.173Z,5.60
2019-05-07T14:26:46.394Z,5.40
2019-05-07T14:29:15.750Z,5.00
2019-05-07T14:31:51.657Z,5.77
2019-05-07T14:34:34.369Z,6.80
2019-05-07T14:37:24.737Z,5.83
2019-05-07T14:39:54.957Z,5.63
2019-05-07T14:42:33.474Z,6.33
2019-05-07T14:45:03.688Z,6.13
2019-05-07T14:47:33.689Z,6.03
2019-05-07T14:50:04.324Z,6.63
2019-05-07T14:52:36.259Z,6.67
2019-05-07T14:55:07.626Z,6.20
2019-05-07T14:57:37.874Z,6.53
2019-05-07T15:00:08.358Z,6.13
2019-05-07T15:02:38.380Z,6.77
2019-05-07T15:05:08.662Z,6.53
2019-05-07T15:07:38.555Z,6.57
2019-05-07T15:10:08.587Z,5.90
2019-05-07T15:12:40.019Z,6.77
2019-05-07T15:15:12.497Z,6.90
2019-05-07T15:17:52.478Z,6.47
2019-05-07T15:20:22.735Z,6.60
2019-05-07T15:23:23.965Z,7.43
2019-05-07T15:25:53.985Z,6.47
2019-05-07T15:28:23.981Z,6.47
2019-05-07T15:30:59.344Z,6.90
2019-05-07T15:33:28.573Z,6.07
2019-05-07T15:35:58.430Z,6.70
2019-05-07T15:38:28.586Z,6.87
2019-05-07T15:40:58.545Z,8.23
2019-05-07T15:43:28.665Z,7.73
2019-05-07T15:45:58.553Z,7.17
2019-05-07T15:48:28.557Z,7.30
2019-05-07T15:50:58.450Z,6.30
2019-05-07T15:53:52.154Z,7.10
2019-05-07T15:56:21.870Z,8.03
2019-05-07T15:58:51.965Z,7.60
2019-05-07T16:01:22.286Z,6.63
2019-05-07T16:03:54.811Z,7.90
2019-05-07T16:06:23.993Z,6.70
2019-05-07T16:08:57.295Z,6.87
2019-05-07T16:11:26.661Z,7.27
2019-05-07T16:14:27.509Z,6.30
2019-05-07T16:17:07.352Z,6.70
2019-05-07T16:19:37.353Z,6.47
2019-05-07T16:22:12.795Z,6.70
2019-05-07T16:24:42.235Z,6.17
2019-05-07T16:27:12.277Z,5.90
2019-05-07T16:29:42.293Z,6.37
2019-05-07T16:32:12.231Z,7.20
2019-05-07T16:34:42.881Z,6.57
2019-05-07T16:37:12.428Z,5.67
2019-05-07T16:39:42.317Z,6.43
2019-05-07T16:42:11.634Z,6.20
2019-05-07T16:44:42.219Z,6.07
2019-05-07T16:47:12.246Z,5.87
2019-05-07T16:49:42.513Z,6.03
2019-05-07T16:52:12.106Z,5.90
2019-05-07T16:54:42.672Z,5.83
2019-05-07T16:57:33.993Z,5.93
2019-05-07T17:00:03.891Z,5.70
2019-05-07T17:02:38.399Z,5.70
2019-05-07T17:05:12.425Z,5.70
2019-05-07T17:07:56.518Z,5.97
2019-05-07T17:10:26.398Z,5.63
2019-05-07T17:12:55.792Z,5.80
2019-05-07T17:15:25.161Z,6.90
2019-05-07T17:18:02.881Z,5.97
2019-05-07T17:20:32.709Z,5.87
2019-05-07T17:23:03.165Z,5.60
2019-05-07T17:25:38.610Z,5.80
2019-05-07T17:28:08.827Z,5.37
2019-05-07T17:30:38.847Z,5.93
2019-05-07T17:33:08.887Z,5.97
2019-05-07T17:35:38.856Z,5.93
2019-05-07T17:38:09.996Z,5.77
2019-05-07T17:40:42.247Z,6.43
2019-05-07T17:43:12.309Z,5.83
2019-05-07T17:45:42.965Z,5.57
2019-05-07T17:48:12.425Z,6.73
2019-05-07T17:50:47.352Z,6.77
2019-05-07T17:53:16.531Z,6.57
2019-05-07T17:55:46.339Z,5.77
2019-05-07T17:58:16.319Z,6.20
2019-05-07T18:00:47.332Z,5.70
2019-05-07T18:03:33.583Z,6.30
2019-05-07T18:06:03.143Z,6.53
2019-05-07T18:08:33.242Z,5.90
2019-05-07T18:11:02.723Z,5.53
2019-05-07T18:13:34.091Z,6.10
2019-05-07T18:16:29.242Z,6.97
2019-05-07T18:18:59.209Z,6.27
2019-05-07T18:21:29.138Z,6.63
2019-05-07T18:24:12.730Z,6.00
2019-05-07T18:26:33.785Z,6.27
2019-05-07T18:29:02.892Z,5.33
2019-05-07T18:31:47.458Z,5.60
2019-05-07T18:34:17.494Z,5.80
2019-05-07T18:36:47.497Z,6.00
2019-05-07T18:39:20.249Z,5.73
2019-05-07T18:41:49.130Z,5.70
2019-05-07T18:44:19.076Z,6.10
2019-05-07T18:46:49.309Z,6.47
2019-05-07T18:49:19.394Z,5.90
2019-05-07T18:51:49.349Z,6.20
2019-05-07T18:54:29.040Z,6.33
2019-05-07T18:56:52.924Z,5.93
2019-05-07T18:59:25.100Z,6.23
2019-05-07T19:01:55.026Z,6.67
2019-05-07T19:04:25.707Z,6.47
2019-05-07T19:06:55.709Z,6.10
2019-05-07T19:09:25.904Z,6.80
2019-05-07T19:11:56.372Z,6.23
2019-05-07T19:14:26.346Z,6.10
2019-05-07T19:16:56.306Z,7.23
2019-05-07T19:19:26.400Z,6.17
2019-05-07T19:21:56.315Z,6.27
2019-05-07T19:24:26.603Z,6.27
2019-05-07T19:26:56.506Z,6.53
2019-05-07T19:29:26.516Z,6.10
2019-05-07T19:32:03.040Z,6.67
2019-05-07T19:34:32.607Z,6.00
2019-05-07T19:37:02.698Z,6.40
2019-05-07T19:39:33.321Z,6.47
2019-05-07T19:42:03.358Z,6.10
2019-05-07T19:44:33.385Z,7.10
2019-05-07T19:47:03.342Z,7.17
2019-05-07T19:49:33.307Z,6.67
2019-05-07T19:52:03.275Z,7.20
2019-05-07T19:54:33.217Z,6.87
2019-05-07T19:57:03.151Z,5.87
2019-05-07T19:59:33.116Z,6.00
2019-05-07T20:02:05.983Z,6.67
2019-05-07T20:04:35.995Z,6.20
2019-05-07T20:07:05.931Z,6.57
2019-05-07T20:09:37.439Z,6.10
2019-05-07T20:12:08.134Z,7.00
2019-05-07T20:14:38.113Z,6.70
2019-05-07T20:17:08.293Z,6.70
2019-05-07T20:19:38.276Z,5.47
2019-05-07T20:22:08.217Z,6.10
2019-05-07T20:24:38.234Z,6.57
2019-05-07T20:27:08.176Z,6.73
2019-05-07T20:29:39.480Z,7.23
2019-05-07T20:32:09.397Z,6.50
2019-05-07T20:34:38.757Z,6.77
2019-05-07T20:37:12.728Z,6.07
2019-05-07T20:39:42.681Z,5.93
2019-05-07T20:42:12.577Z,6.50
2019-05-07T20:44:42.724Z,6.47
2019-05-07T20:47:12.837Z,6.63
2019-05-07T20:49:42.945Z,6.57
2019-05-07T20:52:12.880Z,6.57
2019-05-07T20:54:59.400Z,6.13
2019-05-07T20:57:33.688Z,7.70
2019-05-07T21:00:04.260Z,6.47
2019-05-07T21:02:44.587Z,6.43
2019-05-07T21:05:05.983Z,6.83
2019-05-07T21:07:35.894Z,6.37
2019-05-07T21:10:06.419Z,7.13
2019-05-07T21:12:36.365Z,6.43
2019-05-07T21:15:06.706Z,6.50
2019-05-07T21:17:36.733Z,6.43
2019-05-07T21:20:07.422Z,6.17
2019-05-07T21:22:39.279Z,6.67
2019-05-07T21:25:12.520Z,6.43
2019-05-07T21:27:43.179Z,5.50
2019-05-07T21:30:13.506Z,6.60
2019-05-07T21:32:43.413Z,7.10
2019-05-07T21:35:13.629Z,7.00
2019-05-07T21:37:43.649Z,6.37
2019-05-07T21:40:13.606Z,6.00
2019-05-07T21:42:43.525Z,6.97
2019-05-07T21:45:13.514Z,5.97
2019-05-07T21:47:44.969Z,5.77
2019-05-07T21:50:15.296Z,6.33
2019-05-07T21:52:51.466Z,6.33
2019-05-07T21:55:41.834Z,6.07
2019-05-07T21:58:45.643Z,6.30
2019-05-07T22:01:32.868Z,5.90
2019-05-07T22:04:02.796Z,6.17
2019-05-07T22:06:32.960Z,6.17
2019-05-07T22:09:02.874Z,5.73
2019-05-07T22:11:33.043Z,7.00
2019-05-07T22:14:02.961Z,5.97
2019-05-07T22:16:33.237Z,6.23
2019-05-07T22:19:03.156Z,6.00
2019-05-07T22:21:34.272Z,6.73
2019-05-07T22:24:04.453Z,6.03
2019-05-07T22:26:34.405Z,6.97
2019-05-07T22:29:04.325Z,6.27
2019-05-07T22:31:43.941Z,6.30
2019-05-07T22:34:19.541Z,5.93
2019-05-07T22:36:49.498Z,6.67
2019-05-07T22:39:19.477Z,6.67
2019-05-07T22:41:49.358Z,7.03
2019-05-07T22:44:19.291Z,6.27
2019-05-07T22:46:49.161Z,6.50
2019-05-07T22:49:19.076Z,6.00
2019-05-07T22:51:48.949Z,5.63
2019-05-07T22:54:18.853Z,6.30
2019-05-07T22:57:06.341Z,6.53
2019-05-07T22:59:36.267Z,6.13
2019-05-07T23:02:06.575Z,6.73
2019-05-07T23:04:36.477Z,6.00
2019-05-07T23:07:06.451Z,6.00
2019-05-07T23:09:36.407Z,5.87
2019-05-07T23:12:06.629Z,6.47
2019-05-07T23:14:36.554Z,5.93
2019-05-07T23:17:06.492Z,6.60
2019-05-07T23:19:36.708Z,5.87
2019-05-07T23:22:06.685Z,5.67
2019-05-07T23:24:36.637Z,6.40
2019-05-07T23:27:06.526Z,6.80
2019-05-07T23:29:36.450Z,5.93
2019-05-07T23:32:06.359Z,5.70
2019-05-07T23:34:36.301Z,5.87
2019-05-07T23:37:06.267Z,6.10
2019-05-07T23:39:38.261Z,6.00
2019-05-07T23:42:13.281Z,6.37
2019-05-07T23:44:43.182Z,5.60
2019-05-07T23:47:13.162Z,6.37
2019-05-07T23:49:43.162Z,5.93
2019-05-07T23:52:13.147Z,6.13
2019-05-07T23:54:43.126Z,5.73
2019-05-07T23:57:15.364Z,6.50
2019-05-07T23:59:44.631Z,5.60
